createdAt,value
2022-09-07T00:01:57.691Z,83.85
2022-09-07T00:05:19.458Z,83.74
2022-09-07T00:08:43.746Z,83.73
2022-09-07T00:12:06.036Z,83.92
2022-09-07T00:15:29.271Z,83.75
2022-09-07T00:18:51.802Z,84.01
2022-09-07T00:22:13.751Z,83.64
2022-09-07T00:25:39.466Z,84.04
2022-09-07T00:29:02.724Z,83.78
2022-09-07T00:32:26.377Z,83.97
2022-09-07T00:35:48.331Z,84.09
2022-09-07T00:39:09.898Z,84.73
2022-09-07T00:42:31.761Z,84.77
2022-09-07T00:45:53.587Z,84.74
2022-09-07T00:49:21.436Z,84.75
2022-09-07T00:52:45.866Z,84.79
2022-09-07T00:56:08.934Z,84.91
2022-09-07T00:59:35.454Z,85.36
2022-09-07T01:02:59.241Z,84.94
2022-09-07T01:06:28.225Z,85.32
2022-09-07T01:09:51.386Z,85.64
2022-09-07T01:13:13.138Z,85.69
2022-09-07T01:16:47.805Z,85.64
2022-09-07T01:20:50.658Z,86.01
2022-09-07T01:24:41.523Z,86.09
2022-09-07T01:28:13.597Z,86.25
2022-09-07T01:31:43.710Z,86.10
2022-09-07T01:35:16.130Z,86.28
2022-09-07T01:38:41.867Z,86.38
2022-09-07T01:42:09.194Z,86.33
2022-09-07T01:45:36.407Z,86.15
2022-09-07T01:49:04.946Z,86.02
2022-09-07T01:52:39.163Z,86.05
2022-09-07T01:56:06.415Z,86.15
2022-09-07T01:59:31.901Z,86.53
2022-09-07T02:03:01.164Z,86.53
2022-09-07T02:06:29.720Z,86.71
2022-09-07T02:09:55.579Z,86.85
2022-09-07T02:13:21.300Z,86.66
2022-09-07T02:16:50.352Z,86.90
2022-09-07T02:20:18.139Z,87.07
2022-09-07T02:23:45.839Z,87.60
2022-09-07T02:27:12.301Z,88.07
2022-09-07T02:30:34.624Z,87.64
2022-09-07T02:33:56.886Z,87.52
2022-09-07T02:37:22.825Z,87.99
2022-09-07T02:40:44.922Z,88.16
2022-09-07T02:44:10.073Z,88.38
2022-09-07T02:47:41.165Z,88.73
2022-09-07T02:51:13.720Z,88.69
2022-09-07T02:54:52.849Z,88.31
2022-09-07T02:58:28.333Z,88.76
2022-09-07T03:01:59.847Z,88.97
2022-09-07T03:05:27.527Z,88.93
2022-09-07T03:08:53.684Z,88.81
2022-09-07T03:12:17.421Z,88.74
2022-09-07T03:15:39.592Z,88.71
2022-09-07T03:19:01.403Z,88.49
2022-09-07T03:22:23.230Z,88.26
2022-09-07T03:25:45.136Z,88.11
2022-09-07T03:29:08.311Z,88.20
2022-09-07T03:32:33.304Z,87.71
2022-09-07T03:36:00.263Z,87.06
2022-09-07T03:39:24.298Z,86.92
2022-09-07T03:42:51.577Z,86.49
2022-09-07T03:46:18.330Z,86.41
2022-09-07T03:49:40.173Z,85.99
2022-09-07T03:53:01.968Z,85.73
2022-09-07T03:56:26.867Z,85.50
2022-09-07T03:59:50.089Z,85.25
2022-09-07T04:03:13.667Z,85.43
2022-09-07T04:06:36.255Z,85.11
2022-09-07T04:09:58.101Z,84.98
2022-09-07T04:13:19.900Z,84.59
2022-09-07T04:16:41.802Z,84.48
2022-09-07T04:20:05.798Z,84.20
2022-09-07T04:23:27.525Z,83.99
2022-09-07T04:26:49.360Z,84.07
2022-09-07T04:30:12.208Z,83.79
2022-09-07T04:33:34.537Z,83.73
2022-09-07T04:36:57.848Z,83.00
2022-09-07T04:40:19.947Z,82.56
2022-09-07T04:43:43.545Z,82.01
2022-09-07T04:47:05.452Z,81.14
2022-09-07T04:50:27.770Z,80.41
2022-09-07T04:53:52.729Z,79.96
2022-09-07T04:57:14.644Z,78.96
2022-09-07T05:00:36.904Z,78.72
2022-09-07T05:04:01.386Z,77.31
2022-09-07T05:07:23.199Z,76.86
2022-09-07T05:10:53.930Z,75.57
2022-09-07T05:14:15.973Z,74.97
2022-09-07T05:17:37.609Z,74.60
2022-09-07T05:21:09.430Z,73.47
2022-09-07T05:24:31.611Z,73.40
2022-09-07T05:27:55.392Z,73.01
2022-09-07T05:31:20.006Z,71.37
2022-09-07T05:34:42.578Z,71.25
2022-09-07T05:38:04.436Z,70.09
2022-09-07T05:41:27.803Z,71.92
2022-09-07T05:44:50.948Z,71.32
2022-09-07T05:48:13.161Z,71.01
2022-09-07T05:51:37.168Z,70.05
2022-09-07T05:55:07.727Z,70.48
2022-09-07T05:58:41.767Z,70.52
2022-09-07T06:02:05.525Z,70.98
2022-09-07T06:05:27.543Z,70.73
2022-09-07T06:08:51.210Z,69.23
2022-09-07T06:12:13.186Z,70.13
2022-09-07T06:15:35.192Z,69.44
2022-09-07T06:18:58.404Z,69.49
2022-09-07T06:22:20.524Z,69.45
2022-09-07T06:25:50.045Z,69.29
2022-09-07T06:29:12.536Z,68.63
2022-09-07T06:32:45.748Z,67.52
2022-09-07T06:36:12.956Z,67.60
2022-09-07T06:39:36.608Z,66.78
2022-09-07T06:42:58.791Z,67.44
2022-09-07T06:50:02.599Z,67.62
2022-09-07T06:56:55.688Z,66.98
2022-09-07T07:00:18.294Z,66.68
2022-09-07T07:03:41.054Z,66.15
2022-09-07T07:07:03.235Z,66.00
2022-09-07T07:10:26.663Z,66.75
2022-09-07T07:13:48.681Z,66.60
2022-09-07T07:17:12.845Z,66.44
2022-09-07T07:20:36.336Z,65.90
2022-09-07T07:23:58.366Z,67.94
2022-09-07T07:27:22.187Z,69.38
2022-09-07T07:30:44.260Z,70.38
2022-09-07T07:34:07.641Z,71.23
2022-09-07T07:37:29.908Z,72.47
2022-09-07T07:44:38.397Z,72.53
2022-09-07T07:48:00.402Z,72.10
2022-09-07T07:51:22.634Z,71.65
2022-09-07T07:54:45.286Z,72.84
2022-09-07T07:58:06.847Z,72.26
2022-09-07T08:01:30.124Z,71.51
2022-09-07T08:04:52.941Z,71.82
2022-09-07T08:08:15.681Z,69.58
2022-09-07T08:11:39.683Z,66.63
2022-09-07T08:15:01.807Z,62.56
2022-09-07T08:18:25.464Z,57.57
2022-09-07T08:21:47.535Z,59.39
2022-09-07T08:25:10.569Z,58.07
2022-09-07T08:28:34.742Z,58.93
2022-09-07T08:31:57.218Z,59.72
2022-09-07T08:35:21.517Z,58.00
2022-09-07T08:38:47.581Z,58.75
2022-09-07T08:42:34.633Z,56.86
2022-09-07T08:46:03.710Z,57.57
2022-09-07T08:49:31.499Z,58.85
2022-09-07T08:52:59.874Z,57.67
2022-09-07T08:56:33.464Z,55.24
2022-09-07T09:00:04.325Z,56.33
2022-09-07T09:03:30.163Z,57.47
2022-09-07T09:07:07.755Z,56.40
2022-09-07T09:10:41.314Z,56.44
2022-09-07T09:14:12.021Z,55.30
2022-09-07T09:17:39.641Z,55.72
2022-09-07T09:21:02.520Z,56.47
2022-09-07T09:24:32.791Z,56.50
2022-09-07T09:46:15.129Z,53.89
2022-09-07T09:49:41.558Z,54.53
2022-09-07T09:53:04.333Z,55.17
2022-09-07T09:56:40.924Z,53.93
2022-09-07T10:00:08.535Z,52.61
2022-09-07T10:07:22.340Z,53.66
2022-09-07T10:10:53.378Z,53.91
2022-09-07T10:14:20.559Z,54.39
2022-09-07T10:17:44.824Z,55.08
2022-09-07T10:21:22.892Z,54.17
2022-09-07T10:24:44.991Z,55.34
2022-09-07T10:28:18.284Z,53.92
2022-09-07T10:31:59.220Z,53.52
2022-09-07T10:35:27.371Z,53.57
2022-09-07T10:39:00.455Z,54.16
2022-09-07T10:42:29.280Z,54.16
2022-09-07T10:46:06.126Z,53.20
2022-09-07T10:49:35.266Z,54.76
2022-09-07T10:53:23.865Z,55.66
2022-09-07T10:57:02.090Z,56.68
2022-09-07T11:00:28.721Z,55.67
2022-09-07T11:04:05.599Z,56.58
2022-09-07T11:07:47.552Z,56.12
2022-09-07T11:12:00.823Z,56.91
2022-09-07T11:15:18.053Z,54.80
2022-09-07T11:18:48.462Z,55.81
2022-09-07T11:22:27.818Z,56.28
2022-09-07T11:26:02.960Z,57.33
2022-09-07T11:29:32.066Z,57.18
2022-09-07T11:32:59.007Z,58.11
2022-09-07T11:36:23.030Z,58.48
2022-09-07T11:39:48.711Z,58.44
2022-09-07T11:43:19.251Z,57.62
2022-09-07T11:46:45.995Z,57.98
2022-09-07T11:50:17.121Z,58.01
2022-09-07T11:53:44.927Z,57.51
2022-09-07T11:57:22.011Z,57.83
2022-09-07T12:00:53.301Z,58.46
2022-09-07T12:04:32.607Z,58.50
2022-09-07T12:08:12.121Z,58.78
2022-09-07T12:12:07.240Z,57.93
2022-09-07T12:15:39.143Z,57.53
2022-09-07T12:23:49.938Z,56.38
2022-09-07T12:27:40.096Z,56.32
2022-09-07T12:31:04.589Z,56.58
2022-09-07T12:34:54.914Z,54.79
2022-09-07T12:39:03.281Z,54.32
2022-09-07T12:42:32.141Z,51.17
2022-09-07T12:50:59.017Z,49.13
2022-09-07T12:54:28.946Z,48.10
2022-09-07T12:57:59.659Z,48.24
2022-09-07T13:01:34.412Z,49.02
2022-09-07T13:05:15.391Z,48.65
2022-09-07T13:09:10.109Z,50.31
2022-09-07T13:17:16.158Z,48.96
2022-09-07T13:20:36.137Z,46.89
2022-09-07T13:24:47.361Z,47.47
2022-09-07T13:28:17.256Z,46.87
2022-09-07T13:31:58.984Z,47.06
2022-09-07T13:35:23.963Z,48.82
2022-09-07T13:38:47.890Z,49.98
2022-09-07T13:42:17.676Z,50.14
2022-09-07T13:45:59.691Z,50.00
2022-09-07T13:49:37.698Z,50.21
2022-09-07T13:53:27.921Z,49.23
2022-09-07T13:56:58.332Z,49.73
2022-09-07T14:00:20.790Z,51.28
2022-09-07T14:03:49.389Z,50.79
2022-09-07T14:07:17.110Z,49.62
2022-09-07T14:10:48.938Z,50.42
2022-09-07T14:14:15.195Z,51.04
2022-09-07T14:17:37.468Z,50.48
2022-09-07T14:20:59.888Z,50.64
2022-09-07T14:24:36.465Z,50.65
2022-09-07T14:28:01.166Z,51.11
2022-09-07T14:31:24.938Z,49.64
2022-09-07T14:34:48.074Z,49.64
2022-09-07T14:39:04.032Z,49.43
2022-09-07T14:42:04.031Z,50.47
2022-09-07T14:45:34.605Z,51.27
2022-09-07T14:48:58.460Z,51.68
2022-09-07T14:52:24.678Z,52.35
2022-09-07T14:55:48.374Z,52.70
2022-09-07T14:59:34.247Z,51.61
2022-09-07T15:02:56.389Z,51.84
2022-09-07T15:10:19.815Z,51.69
2022-09-07T15:13:45.533Z,52.00
2022-09-07T15:21:05.901Z,52.17
2022-09-07T15:24:27.832Z,53.04
2022-09-07T15:27:49.829Z,52.67
2022-09-07T15:34:57.236Z,53.56
2022-09-07T15:42:59.540Z,54.50
2022-09-07T15:45:43.385Z,55.17
2022-09-07T15:49:05.443Z,55.25
2022-09-07T15:52:31.477Z,55.13
2022-09-07T15:55:55.561Z,55.03
2022-09-07T15:59:17.805Z,54.29
2022-09-07T16:06:22.364Z,53.47
2022-09-07T16:09:45.949Z,53.97
2022-09-07T16:13:16.308Z,53.60
2022-09-07T16:20:21.061Z,55.01
2022-09-07T16:23:45.142Z,55.30
2022-09-07T16:27:08.908Z,55.45
2022-09-07T16:30:31.306Z,55.85
2022-09-07T16:33:53.933Z,55.68
2022-09-07T16:37:17.026Z,55.84
2022-09-07T16:40:42.835Z,56.17
2022-09-07T16:44:06.378Z,56.55
2022-09-07T16:47:28.795Z,56.72
2022-09-07T16:51:01.217Z,56.99
2022-09-07T16:54:24.184Z,57.23
2022-09-07T17:01:31.619Z,57.79
2022-09-07T17:04:53.537Z,57.94
2022-09-07T17:08:15.750Z,58.00
2022-09-07T17:11:38.382Z,57.94
2022-09-07T17:15:00.267Z,58.12
2022-09-07T17:22:06.057Z,58.77
2022-09-07T17:25:28.455Z,58.89
2022-09-07T17:28:51.977Z,58.91
2022-09-07T17:32:29.836Z,59.09
2022-09-07T17:35:54.281Z,59.34
2022-09-07T17:39:18.107Z,59.25
2022-09-07T17:46:25.068Z,59.38
2022-09-07T17:49:47.687Z,59.68
2022-09-07T17:53:11.468Z,60.17
2022-09-07T17:56:34.518Z,60.17
2022-09-07T18:00:12.386Z,60.54
2022-09-07T18:03:36.156Z,60.54
2022-09-07T18:06:58.513Z,60.76
2022-09-07T18:10:22.437Z,61.00
2022-09-07T18:13:48.093Z,61.30
2022-09-07T18:17:10.745Z,61.41
2022-09-07T18:20:34.417Z,61.98
2022-09-07T18:23:59.651Z,61.78
2022-09-07T18:27:42.792Z,62.41
2022-09-07T18:31:09.322Z,62.93
2022-09-07T18:34:32.377Z,62.93
2022-09-07T18:37:55.746Z,62.82
2022-09-07T18:41:19.423Z,63.04
2022-09-07T18:48:27.052Z,63.97
2022-09-07T18:55:33.551Z,64.10
2022-09-07T18:58:58.359Z,64.62
2022-09-07T19:02:23.259Z,64.57
2022-09-07T19:05:50.853Z,65.24
2022-09-07T19:09:14.415Z,65.00
2022-09-07T19:12:37.364Z,64.98
2022-09-07T19:16:06.395Z,65.16
2022-09-07T19:19:31.073Z,65.31
2022-09-07T19:22:53.935Z,65.85
2022-09-07T19:26:16.988Z,66.23
2022-09-07T19:29:40.046Z,65.82
2022-09-07T19:33:04.509Z,66.57
2022-09-07T19:36:30.165Z,66.99
2022-09-07T19:39:55.501Z,67.18
2022-09-07T19:43:18.134Z,67.07
2022-09-07T19:46:41.979Z,67.53
2022-09-07T19:50:04.871Z,67.37
2022-09-07T19:53:33.151Z,68.82
2022-09-07T19:56:56.116Z,68.90
2022-09-07T20:00:19.385Z,68.58
2022-09-07T20:03:43.405Z,68.70
2022-09-07T20:07:07.050Z,69.26
2022-09-07T20:10:49.154Z,70.03
2022-09-07T20:14:13.655Z,70.09
2022-09-07T20:17:38.056Z,69.99
2022-09-07T20:21:05.713Z,70.17
2022-09-07T20:24:29.187Z,70.32
2022-09-07T20:27:54.199Z,70.17
2022-09-07T20:31:18.115Z,71.00
2022-09-07T20:34:41.254Z,69.88
2022-09-07T20:38:04.102Z,70.81
2022-09-07T20:41:29.824Z,70.81
2022-09-07T20:44:54.112Z,70.91
2022-09-07T20:48:17.589Z,71.53
2022-09-07T20:51:40.861Z,70.99
2022-09-07T20:55:03.818Z,71.21
2022-09-07T20:58:26.784Z,71.68
2022-09-07T21:01:51.097Z,70.98
2022-09-07T21:05:13.720Z,71.73
2022-09-07T21:08:38.258Z,72.29
2022-09-07T21:12:01.257Z,72.05
2022-09-07T21:15:24.342Z,72.48
2022-09-07T21:18:48.326Z,71.91
2022-09-07T21:22:11.080Z,72.89
2022-09-07T21:25:33.931Z,72.63
2022-09-07T21:28:58.226Z,73.72
2022-09-07T21:32:20.685Z,73.46
2022-09-07T21:35:45.577Z,73.27
2022-09-07T21:39:12.584Z,73.28
2022-09-07T21:42:37.134Z,73.28
2022-09-07T21:45:59.375Z,73.09
2022-09-07T21:49:22.131Z,73.90
2022-09-07T21:52:46.017Z,73.84
2022-09-07T21:56:11.270Z,73.37
2022-09-07T21:59:34.592Z,74.23
2022-09-07T22:03:01.441Z,74.71
2022-09-07T22:06:24.714Z,74.70
2022-09-07T22:09:51.972Z,74.86
2022-09-07T22:13:14.624Z,74.64
2022-09-07T22:16:37.491Z,74.86
2022-09-07T22:20:00.233Z,74.82
2022-09-07T22:23:23.090Z,74.22
2022-09-07T22:26:47.181Z,74.65
2022-09-07T22:30:11.985Z,74.96
2022-09-07T22:33:34.863Z,75.63
2022-09-07T22:36:59.281Z,75.52
2022-09-07T22:40:21.990Z,74.34
2022-09-07T22:43:47.281Z,74.88
2022-09-07T22:47:11.390Z,74.78
2022-09-07T22:50:34.972Z,74.89
2022-09-07T22:53:57.821Z,74.99
2022-09-07T22:57:20.984Z,74.87
2022-09-07T23:00:47.224Z,75.32
2022-09-07T23:04:11.785Z,76.79
2022-09-07T23:07:34.750Z,78.83
2022-09-07T23:10:57.707Z,78.75
2022-09-07T23:14:22.704Z,78.00
2022-09-07T23:17:47.289Z,78.52
2022-09-07T23:21:10.417Z,78.51
2022-09-07T23:24:33.809Z,79.02
2022-09-07T23:27:56.741Z,78.62
2022-09-07T23:31:19.831Z,78.40
2022-09-07T23:34:44.403Z,79.23
2022-09-07T23:38:07.460Z,79.67
2022-09-07T23:41:30.624Z,79.72
2022-09-07T23:44:53.481Z,79.90
2022-09-07T23:48:16.445Z,79.80
2022-09-07T23:51:40.738Z,80.14
2022-09-07T23:55:03.907Z,79.93
2022-09-07T23:58:26.459Z,80.67
